Time;durP1;ratioP1;P1;durP2;ratioP2;P2;SDS_P1;SDS_P2;PMS_P1;PMS_P2;Temp;Humidity;BMP_temperature;BMP_pressure;BME280_temperature;BME280_humidity;BME280_pressure;Samples;Min_cycle;Max_cycle;Signal;HPM_P1;HPM_P2
2022/04/05 00:00:05;;;;;;;6.85;5.80;;;10.60;99.90;;;;;;5046214;28;20024;-44
2022/04/05 00:02:30;;;;;;;5.60;5.10;;;10.60;99.90;;;;;;5047347;28;20024;-42
2022/04/05 00:04:56;;;;;;;6.10;5.50;;;10.60;99.90;;;;;;5046283;28;20025;-43
2022/04/05 00:07:21;;;;;;;6.40;5.47;;;10.50;99.90;;;;;;5046228;28;20078;-43
2022/04/05 00:09:47;;;;;;;5.93;4.82;;;10.50;99.90;;;;;;5046289;28;20029;-41
2022/04/05 00:12:13;;;;;;;5.60;4.47;;;10.40;99.90;;;;;;5047123;28;20120;-41
2022/04/05 00:14:38;;;;;;;4.05;3.60;;;10.30;99.90;;;;;;5046325;28;20361;-43
2022/04/05 00:17:04;;;;;;;4.50;3.03;;;10.20;99.90;;;;;;5046622;28;20043;-43
2022/04/05 00:19:30;;;;;;;3.00;2.70;;;10.00;99.90;;;;;;5046562;28;20876;-41
2022/04/05 00:21:56;;;;;;;3.67;2.15;;;9.80;99.90;;;;;;5045386;28;20025;-42
2022/04/05 00:24:21;;;;;;;2.13;1.88;;;9.70;99.90;;;;;;5046840;28;20585;-43
2022/04/05 00:26:47;;;;;;;3.17;1.40;;;9.60;99.90;;;;;;5045675;28;20395;-42
2022/04/05 00:29:13;;;;;;;1.70;1.35;;;9.50;99.90;;;;;;5045651;28;20028;-43
2022/04/05 00:31:38;;;;;;;2.78;1.42;;;9.40;99.90;;;;;;5045903;28;20037;-43
2022/04/05 00:34:04;;;;;;;1.65;1.20;;;9.40;99.90;;;;;;5046538;28;20029;-43
2022/04/05 00:36:30;;;;;;;1.48;1.38;;;9.30;99.90;;;;;;5044918;28;20039;-43
2022/04/05 00:38:55;;;;;;;1.27;1.23;;;9.30;99.90;;;;;;5046116;28;20029;-44
2022/04/05 00:41:21;;;;;;;1.40;1.23;;;9.30;99.90;;;;;;5046010;28;20032;-42
2022/04/05 00:43:47;;;;;;;1.70;1.60;;;9.30;99.90;;;;;;5045087;28;20027;-43
2022/04/05 00:46:12;;;;;;;1.45;1.30;;;9.30;99.90;;;;;;5046562;28;20025;-43
2022/04/05 00:48:49;;;;;;;1.85;1.60;;;9.30;99.90;;;;;;5046711;28;20043;-44
2022/04/05 00:51:16;;;;;;;2.00;1.60;;;9.20;99.90;;;;;;5046112;28;20140;-43
2022/04/05 00:53:48;;;;;;;2.92;1.77;;;9.20;99.90;;;;;;5045566;28;20028;-43
2022/04/05 00:56:15;;;;;;;3.38;1.42;;;9.20;99.90;;;;;;5045648;28;20116;-43
2022/04/05 00:58:42;;;;;;;1.55;1.45;;;9.10;99.90;;;;;;5045735;28;20033;-43
2022/04/05 01:01:09;;;;;;;2.60;1.50;;;9.10;99.90;;;;;;5045778;28;20040;-43
2022/04/05 01:03:36;;;;;;;1.67;1.27;;;9.10;99.90;;;;;;5045604;28;20363;-42
2022/04/05 01:06:04;;;;;;;3.33;1.25;;;9.10;99.90;;;;;;5045151;28;20021;-44
2022/04/05 01:08:30;;;;;;;1.95;1.83;;;9.10;99.90;;;;;;5046110;28;20765;-44
2022/04/05 01:10:59;;;;;;;1.67;1.58;;;9.10;99.90;;;;;;5044805;28;20033;-43
2022/04/05 01:13:24;;;;;;;3.15;1.83;;;9.00;99.90;;;;;;5045897;28;20211;-42
2022/04/05 01:15:53;;;;;;;1.67;1.55;;;9.00;99.90;;;;;;5045633;28;20032;-43
2022/04/05 01:18:18;;;;;;;1.60;1.50;;;8.90;99.90;;;;;;5044490;28;20156;-43
2022/04/05 01:20:44;;;;;;;1.73;1.63;;;9.00;99.90;;;;;;5045351;28;20143;-43
2022/04/05 01:23:09;;;;;;;2.08;1.70;;;9.00;99.90;;;;;;5045672;28;20480;-42
2022/04/05 01:25:35;;;;;;;1.85;1.65;;;8.90;99.90;;;;;;5045239;28;20029;-43
2022/04/05 01:28:00;;;;;;;1.83;1.65;;;9.00;99.90;;;;;;5045227;28;20024;-40
2022/04/05 01:30:26;;;;;;;2.10;1.35;;;9.00;99.90;;;;;;5045369;28;20037;-42
2022/04/05 01:32:57;;;;;;;2.80;1.40;;;9.00;99.90;;;;;;5044079;28;20021;-42
2022/04/05 01:35:22;;;;;;;1.55;1.20;;;8.90;99.90;;;;;;5045703;28;20033;-42
2022/04/05 01:37:48;;;;;;;1.40;1.30;;;9.00;99.90;;;;;;5044812;28;20052;-41
2022/04/05 01:40:13;;;;;;;3.00;1.75;;;9.00;99.90;;;;;;5044619;28;20377;-42
2022/04/05 01:42:39;;;;;;;3.45;1.55;;;9.00;99.90;;;;;;5045051;28;20025;-42
2022/04/05 01:45:05;;;;;;;1.60;1.48;;;9.00;99.90;;;;;;5044850;28;20464;-42
2022/04/05 01:47:31;;;;;;;3.65;1.77;;;9.00;99.90;;;;;;5045080;28;20104;-43
2022/04/05 01:49:57;;;;;;;3.58;1.60;;;9.00;99.90;;;;;;5044747;28;20017;-43
2022/04/05 01:52:23;;;;;;;2.28;1.75;;;9.10;99.90;;;;;;5045149;28;20037;-43
2022/04/05 01:54:48;;;;;;;2.35;1.50;;;9.10;99.90;;;;;;5044621;28;20035;-43
2022/04/05 01:57:15;;;;;;;1.88;1.60;;;9.10;99.90;;;;;;5045209;28;20113;-42
2022/04/05 01:59:41;;;;;;;3.83;1.58;;;9.20;99.90;;;;;;5044378;28;20017;-43
2022/04/05 02:02:08;;;;;;;2.00;1.85;;;9.10;99.90;;;;;;5045260;28;20036;-43
2022/04/05 02:04:34;;;;;;;1.50;1.40;;;9.10;99.90;;;;;;5044557;28;20066;-42
2022/04/05 02:07:00;;;;;;;1.95;1.70;;;9.10;99.90;;;;;;5044183;28;20036;-43
2022/04/05 02:09:26;;;;;;;2.22;1.63;;;9.10;99.90;;;;;;5045167;28;20025;-43
2022/04/05 02:11:53;;;;;;;1.80;1.55;;;9.00;99.90;;;;;;5044668;28;20531;-42
2022/04/05 02:14:18;;;;;;;3.13;1.55;;;9.00;99.90;;;;;;5044237;28;20328;-42
2022/04/05 02:16:44;;;;;;;2.08;1.42;;;9.00;99.90;;;;;;5044672;28;20473;-42
2022/04/05 02:19:10;;;;;;;2.83;1.60;;;9.00;99.90;;;;;;5044942;28;20029;-42
2022/04/05 02:21:35;;;;;;;1.80;1.27;;;9.00;99.90;;;;;;5044394;28;20048;-43
2022/04/05 02:24:01;;;;;;;2.78;1.65;;;9.00;99.90;;;;;;5044386;28;20512;-42
2022/04/05 02:26:27;;;;;;;3.08;1.70;;;9.00;99.90;;;;;;5045195;28;20083;-43
2022/04/05 02:28:52;;;;;;;2.05;1.85;;;9.00;99.90;;;;;;5043706;28;20452;-43
2022/04/05 02:31:18;;;;;;;2.28;1.40;;;9.10;99.90;;;;;;5044872;28;20033;-43
2022/04/05 02:33:44;;;;;;;1.50;1.40;;;9.10;99.90;;;;;;5044554;28;20048;-43
2022/04/05 02:36:10;;;;;;;3.22;1.30;;;9.10;99.90;;;;;;5044248;28;20582;-42
2022/04/05 02:38:36;;;;;;;1.85;1.20;;;9.10;99.90;;;;;;5044970;28;20052;-43
2022/04/05 02:41:05;;;;;;;3.03;1.45;;;9.10;99.90;;;;;;5043520;28;20017;-44
2022/04/05 02:43:31;;;;;;;3.05;1.55;;;9.10;99.90;;;;;;5044569;28;20040;-43
2022/04/05 02:45:56;;;;;;;1.33;1.20;;;9.10;99.90;;;;;;5044344;28;20031;-42
2022/04/05 02:48:23;;;;;;;3.15;1.50;;;9.10;99.90;;;;;;5044587;28;20045;-42
2022/04/05 02:50:49;;;;;;;1.98;1.70;;;9.10;99.90;;;;;;5043940;28;20072;-43
2022/04/05 02:53:14;;;;;;;3.22;1.75;;;9.00;99.90;;;;;;5044845;28;20040;-43
2022/04/05 02:55:43;;;;;;;2.50;1.65;;;9.00;99.90;;;;;;5043475;28;20037;-44
2022/04/05 02:58:09;;;;;;;3.28;1.58;;;9.00;99.90;;;;;;5044784;28;20384;-42
2022/04/05 03:00:35;;;;;;;2.30;1.60;;;9.00;99.90;;;;;;5047140;28;20052;-42
2022/04/05 03:03:01;;;;;;;1.40;1.30;;;9.00;99.90;;;;;;5047365;28;20483;-42
2022/04/05 03:05:26;;;;;;;2.38;1.40;;;9.00;99.90;;;;;;5048529;28;20029;-42
2022/04/05 03:07:52;;;;;;;2.03;1.70;;;9.00;99.90;;;;;;5047595;28;20056;-42
2022/04/05 03:10:17;;;;;;;1.50;1.40;;;9.00;99.90;;;;;;5047227;28;20586;-43
2022/04/05 03:12:43;;;;;;;4.57;1.80;;;9.00;99.90;;;;;;5047561;28;20089;-43
2022/04/05 03:15:09;;;;;;;2.28;1.70;;;8.90;99.90;;;;;;5048673;28;20128;-43
2022/04/05 03:17:40;;;;;;;2.45;1.85;;;8.90;99.90;;;;;;5047326;28;20024;-42
2022/04/05 03:20:12;;;;;;;2.05;1.65;;;8.90;99.90;;;;;;5048271;28;20033;-43
2022/04/05 03:22:39;;;;;;;2.70;1.80;;;8.90;99.90;;;;;;5044797;28;20467;-43
2022/04/05 03:25:05;;;;;;;2.15;1.40;;;8.90;99.90;;;;;;5046555;28;20380;-43
2022/04/05 03:27:30;;;;;;;4.18;1.63;;;8.90;99.90;;;;;;5047337;28;20021;-43
2022/04/05 03:29:56;;;;;;;2.80;1.90;;;8.90;99.90;;;;;;5047654;28;20108;-42
2022/04/05 03:32:21;;;;;;;3.75;1.80;;;8.90;99.90;;;;;;5046659;28;20500;-43
2022/04/05 03:34:49;;;;;;;3.05;2.10;;;8.90;99.90;;;;;;5047207;28;20075;-43
2022/04/05 03:37:15;;;;;;;2.85;2.00;;;8.90;99.90;;;;;;5047660;28;20029;-43
2022/04/05 03:39:41;;;;;;;2.80;1.73;;;8.80;99.90;;;;;;5046094;28;20368;-43
2022/04/05 03:42:07;;;;;;;2.20;1.73;;;8.90;99.90;;;;;;5047236;28;20028;-42
2022/04/05 03:44:32;;;;;;;2.50;1.92;;;8.90;99.90;;;;;;5047437;28;20024;-43
2022/04/05 03:46:59;;;;;;;4.38;2.10;;;8.90;99.90;;;;;;5046028;28;20029;-42
2022/04/05 03:49:25;;;;;;;3.03;2.00;;;8.90;99.90;;;;;;5047654;28;20110;-42
2022/04/05 03:51:50;;;;;;;2.05;1.95;;;8.90;99.90;;;;;;5045938;28;20032;-43
2022/04/05 03:54:16;;;;;;;4.97;2.50;;;8.90;99.90;;;;;;5047127;28;20404;-43
2022/04/05 03:56:42;;;;;;;4.22;2.35;;;8.90;99.90;;;;;;5046674;28;20080;-43
2022/04/05 03:59:07;;;;;;;2.28;2.03;;;8.90;99.90;;;;;;5046361;28;20467;-43
2022/04/05 04:01:33;;;;;;;4.20;2.78;;;8.90;99.90;;;;;;5047850;28;20033;-43
2022/04/05 04:03:58;;;;;;;3.25;2.47;;;8.90;99.90;;;;;;5046722;28;20392;-42
2022/04/05 04:06:23;;;;;;;5.05;2.80;;;8.90;99.90;;;;;;5047034;28;20033;-42
2022/04/05 04:08:49;;;;;;;4.45;2.70;;;8.90;99.90;;;;;;5046351;28;20021;-43
2022/04/05 04:11:14;;;;;;;2.90;2.70;;;8.90;99.90;;;;;;5046519;28;20863;-44
2022/04/05 04:13:40;;;;;;;2.63;2.42;;;8.90;99.90;;;;;;5046247;28;20014;-43
2022/04/05 04:16:05;;;;;;;3.42;2.60;;;9.00;99.90;;;;;;5047399;28;20025;-43
2022/04/05 04:18:31;;;;;;;3.17;2.67;;;9.00;99.90;;;;;;5047006;28;20040;-42
2022/04/05 04:20:57;;;;;;;3.58;2.70;;;8.90;99.90;;;;;;5045507;28;20013;-43
2022/04/05 04:23:22;;;;;;;4.45;2.55;;;8.90;99.90;;;;;;5046698;28;20025;-42
2022/04/05 04:25:48;;;;;;;2.80;2.60;;;9.00;99.90;;;;;;5046527;28;20032;-42
2022/04/05 04:28:14;;;;;;;2.97;2.67;;;9.00;99.90;;;;;;5046050;28;20023;-43
2022/04/05 04:30:39;;;;;;;2.78;2.50;;;9.00;99.90;;;;;;5047293;28;20041;-43
2022/04/05 04:33:08;;;;;;;4.55;2.97;;;9.00;99.90;;;;;;5045619;28;20025;-42
2022/04/05 04:35:34;;;;;;;3.72;2.85;;;9.00;99.90;;;;;;5046094;28;20112;-42
2022/04/05 04:38:00;;;;;;;4.07;3.28;;;9.00;99.90;;;;;;5045718;28;20051;-43
2022/04/05 04:40:26;;;;;;;4.10;3.17;;;9.00;99.90;;;;;;5046787;28;20052;-43
2022/04/05 04:42:52;;;;;;;4.20;3.65;;;9.00;99.90;;;;;;5045315;28;20037;-42
2022/04/05 04:45:17;;;;;;;5.22;3.53;;;9.10;99.90;;;;;;5046302;28;20035;-42
2022/04/05 04:47:43;;;;;;;5.35;3.88;;;9.10;99.90;;;;;;5046241;28;20021;-42
2022/04/05 04:50:13;;;;;;;5.90;4.22;;;9.10;99.90;;;;;;5045432;28;20339;-43
2022/04/05 04:52:38;;;;;;;5.03;4.30;;;9.10;99.90;;;;;;5046548;28;20167;-43
2022/04/05 04:55:07;;;;;;;5.55;4.50;;;9.10;99.90;;;;;;5044895;28;20108;-43
2022/04/05 04:57:36;;;;;;;6.68;4.53;;;9.10;99.90;;;;;;5045923;28;20920;-43
2022/04/05 05:00:03;;;;;;;4.53;3.88;;;9.10;99.90;;;;;;5045387;28;20436;-43
2022/04/05 05:02:29;;;;;;;5.35;4.10;;;9.10;99.90;;;;;;5045267;28;20116;-43
2022/04/05 05:04:54;;;;;;;4.82;4.18;;;9.20;99.90;;;;;;5045618;28;20448;-43
2022/04/05 05:07:20;;;;;;;6.07;4.75;;;9.10;99.90;;;;;;5045880;28;20033;-42
2022/04/05 05:09:45;;;;;;;6.53;4.63;;;9.10;99.90;;;;;;5044256;28;20025;-42
2022/04/05 05:12:11;;;;;;;5.03;4.50;;;9.10;99.90;;;;;;5046067;28;20123;-42
2022/04/05 05:14:41;;;;;;;7.38;5.03;;;9.20;99.90;;;;;;5045614;28;20523;-43
2022/04/05 05:17:06;;;;;;;4.97;4.47;;;9.20;99.90;;;;;;5045112;28;20025;-43
2022/04/05 05:19:33;;;;;;;5.40;4.80;;;9.20;99.90;;;;;;5045392;28;20009;-42
2022/04/05 05:21:58;;;;;;;5.50;4.65;;;9.20;99.90;;;;;;5034051;28;20481;-42
2022/04/05 05:24:24;;;;;;;5.40;4.45;;;9.20;99.90;;;;;;5044843;28;20040;-42
2022/04/05 05:26:50;;;;;;;4.55;4.15;;;9.20;99.90;;;;;;5045335;28;20072;-42
2022/04/05 05:29:15;;;;;;;5.93;5.10;;;9.20;99.90;;;;;;5045800;28;20165;-42
2022/04/05 05:31:41;;;;;;;5.53;4.95;;;9.20;99.90;;;;;;5044097;28;20039;-42
2022/04/05 05:34:07;;;;;;;6.45;5.53;;;9.20;99.90;;;;;;5045757;28;20027;-44
2022/04/05 05:36:33;;;;;;;5.95;5.30;;;9.20;99.90;;;;;;5045278;28;20021;-43
2022/04/05 05:38:58;;;;;;;7.60;5.20;;;9.20;99.90;;;;;;5044690;28;20024;-43
2022/04/05 05:41:24;;;;;;;8.07;5.70;;;9.20;99.90;;;;;;5046063;28;20051;-43
2022/04/05 05:43:49;;;;;;;5.70;4.82;;;9.20;99.90;;;;;;5046018;28;20009;-43
2022/04/05 05:46:15;;;;;;;6.60;5.57;;;9.20;99.90;;;;;;5042270;28;20897;-42
2022/04/05 05:48:42;;;;;;;7.53;5.45;;;9.20;99.90;;;;;;5042400;28;20027;-43
2022/04/05 05:51:13;;;;;;;9.25;6.72;;;9.20;99.90;;;;;;5043647;28;20765;-42
2022/04/05 05:53:39;;;;;;;7.47;6.38;;;9.20;99.90;;;;;;5043695;28;20021;-42
2022/04/05 05:56:05;;;;;;;6.97;6.28;;;9.20;99.90;;;;;;5043983;28;20060;-42
2022/04/05 05:58:30;;;;;;;9.40;6.38;;;9.30;99.90;;;;;;5043554;28;20658;-44
2022/04/05 06:00:56;;;;;;;7.80;6.40;;;9.30;99.90;;;;;;5045078;28;20647;-43
2022/04/05 06:03:21;;;;;;;7.20;6.28;;;9.30;99.90;;;;;;5045504;28;20024;-42
2022/04/05 06:05:47;;;;;;;10.05;8.13;;;9.30;99.90;;;;;;5044424;28;20039;-42
2022/04/05 06:08:14;;;;;;;9.13;7.50;;;9.30;99.90;;;;;;5046605;28;20025;-40
2022/04/05 06:10:40;;;;;;;10.07;7.35;;;9.30;99.90;;;;;;5045495;28;20140;-41
2022/04/05 06:13:06;;;;;;;13.45;9.95;;;9.30;99.90;;;;;;5042792;28;20013;-42
2022/04/05 06:15:32;;;;;;;11.68;9.63;;;9.40;99.90;;;;;;5044695;28;20031;-42
2022/04/05 06:17:58;;;;;;;13.63;10.30;;;9.40;99.90;;;;;;5043257;28;20040;-43
2022/04/05 06:20:24;;;;;;;12.13;10.27;;;9.40;99.90;;;;;;5044806;28;20122;-42
2022/04/05 06:22:52;;;;;;;10.95;9.48;;;9.50;99.90;;;;;;5044299;28;20033;-41
2022/04/05 06:25:29;;;;;;;11.57;9.73;;;9.50;99.90;;;;;;5044776;28;20091;-43
2022/04/05 06:28:01;;;;;;;12.15;10.07;;;9.60;99.90;;;;;;5042586;28;20029;-42
2022/04/05 06:30:27;;;;;;;10.70;9.00;;;9.60;99.90;;;;;;5043773;28;20025;-43
2022/04/05 06:33:13;;;;;;;10.45;9.35;;;9.70;99.90;;;;;;5044337;28;20039;-42
2022/04/05 06:35:42;;;;;;;10.80;9.70;;;9.70;99.90;;;;;;5046694;28;20021;-41
2022/04/05 06:38:08;;;;;;;10.48;8.95;;;9.80;99.90;;;;;;5048801;28;20498;-43
2022/04/05 06:40:34;;;;;;;10.98;9.32;;;9.80;99.90;;;;;;5048177;28;20048;-42
2022/04/05 06:43:00;;;;;;;11.30;10.00;;;9.90;99.90;;;;;;5048087;28;20021;-43
2022/04/05 06:45:26;;;;;;;11.60;10.02;;;9.90;99.90;;;;;;5048860;28;20025;-42
2022/04/05 06:47:52;;;;;;;12.43;9.93;;;9.90;99.90;;;;;;5047218;28;20025;-43
2022/04/05 06:50:24;;;;;;;11.30;9.50;;;10.00;99.90;;;;;;5048601;28;20044;-43
2022/04/05 06:52:50;;;;;;;12.37;11.07;;;10.00;99.90;;;;;;5048025;28;20024;-43
2022/04/05 06:55:16;;;;;;;12.07;10.23;;;10.00;99.90;;;;;;5047705;28;20029;-43
2022/04/05 06:57:42;;;;;;;12.15;10.68;;;10.10;99.90;;;;;;5047581;28;20152;-43
2022/04/05 07:00:10;;;;;;;12.77;10.77;;;10.10;99.90;;;;;;5048540;28;20055;-43
2022/04/05 07:02:36;;;;;;;17.45;10.65;;;10.10;99.90;;;;;;5047319;28;20025;-42
2022/04/05 07:05:03;;;;;;;12.60;10.82;;;10.20;99.90;;;;;;5048001;28;20017;-43
2022/04/05 07:07:29;;;;;;;13.50;11.20;;;10.20;99.90;;;;;;5048577;28;20029;-42
2022/04/05 07:09:54;;;;;;;14.30;10.13;;;10.20;99.90;;;;;;5047176;28;20488;-43
2022/04/05 07:12:20;;;;;;;16.33;10.57;;;10.30;99.90;;;;;;5048060;28;20548;-42
2022/04/05 07:14:46;;;;;;;14.63;11.57;;;10.30;99.90;;;;;;5047739;28;20403;-42
2022/04/05 07:17:11;;;;;;;18.67;10.38;;;10.30;99.90;;;;;;5047342;28;20138;-44
2022/04/05 07:19:37;;;;;;;15.00;10.55;;;10.30;99.90;;;;;;5048222;28;20508;-42
2022/04/05 07:22:03;;;;;;;15.15;9.85;;;10.30;99.90;;;;;;5048215;28;20047;-43
2022/04/05 07:24:29;;;;;;;13.13;9.52;;;10.30;99.90;;;;;;5046834;28;20024;-44
2022/04/05 07:26:55;;;;;;;12.20;9.82;;;10.40;99.90;;;;;;5047267;28;20063;-43
2022/04/05 07:29:21;;;;;;;11.65;8.77;;;10.40;99.90;;;;;;5047826;28;20461;-43
2022/04/05 07:31:47;;;;;;;13.40;9.23;;;10.40;99.90;;;;;;5046505;28;20132;-42
2022/04/05 07:34:12;;;;;;;13.32;8.85;;;10.40;99.90;;;;;;5047437;28;20028;-43
2022/04/05 07:36:38;;;;;;;13.05;8.82;;;10.50;99.90;;;;;;5047595;28;20063;-42
2022/04/05 07:39:04;;;;;;;10.02;8.02;;;10.50;99.90;;;;;;5046367;28;20031;-44
2022/04/05 07:41:30;;;;;;;12.60;9.32;;;10.60;99.90;;;;;;5048361;28;20025;-42
2022/04/05 07:43:55;;;;;;;8.98;7.20;;;10.60;99.90;;;;;;5046365;28;20116;-42
2022/04/05 07:46:21;;;;;;;10.93;7.82;;;10.60;99.90;;;;;;5043416;28;20033;-42
2022/04/05 07:48:47;;;;;;;8.50;7.22;;;10.70;99.90;;;;;;5047048;28;20025;-43
2022/04/05 07:51:14;;;;;;;8.52;7.20;;;10.70;99.90;;;;;;5046530;28;20448;-44
2022/04/05 07:53:39;;;;;;;10.30;7.25;;;10.70;99.90;;;;;;5047630;28;20039;-44
2022/04/05 07:56:05;;;;;;;9.77;7.75;;;10.80;99.90;;;;;;5046953;28;20049;-42
2022/04/05 07:58:30;;;;;;;9.70;7.55;;;10.80;99.90;;;;;;5047155;28;20043;-44
2022/04/05 08:00:56;;;;;;;8.38;7.30;;;10.80;99.90;;;;;;5046517;28;20032;-43
2022/04/05 08:03:22;;;;;;;10.88;7.78;;;10.80;99.90;;;;;;5047593;28;20067;-44
2022/04/05 08:05:48;;;;;;;8.98;7.03;;;10.80;99.90;;;;;;5046408;28;20036;-41
2022/04/05 08:08:14;;;;;;;8.13;6.22;;;10.80;99.90;;;;;;5047190;28;20104;-42
2022/04/05 08:10:40;;;;;;;8.45;6.63;;;10.80;99.90;;;;;;5046799;28;20131;-42
2022/04/05 08:13:05;;;;;;;7.57;5.80;;;10.80;99.90;;;;;;5046157;28;20024;-43
2022/04/05 08:15:34;;;;;;;7.68;6.20;;;10.80;99.90;;;;;;5046749;28;20105;-44
2022/04/05 08:18:00;;;;;;;6.50;5.22;;;10.80;99.90;;;;;;5046471;28;20112;-43
2022/04/05 08:20:28;;;;;;;6.78;5.55;;;10.80;99.90;;;;;;5044309;28;20071;-42
2022/04/05 08:22:53;;;;;;;8.77;5.97;;;10.80;99.90;;;;;;5046166;28;20032;-44
2022/04/05 08:25:19;;;;;;;6.95;6.03;;;10.80;99.90;;;;;;5046467;28;20094;-43
2022/04/05 08:27:46;;;;;;;8.50;6.13;;;10.90;99.90;;;;;;5045501;28;20021;-43
2022/04/05 08:30:15;;;;;;;7.97;6.50;;;10.90;99.90;;;;;;5047371;28;20641;-43
2022/04/05 08:32:42;;;;;;;7.78;5.60;;;10.90;99.90;;;;;;5045596;28;20503;-43
2022/04/05 08:35:13;;;;;;;6.80;5.65;;;10.90;99.90;;;;;;5045895;28;20017;-43
2022/04/05 08:37:40;;;;;;;8.00;5.82;;;10.90;99.90;;;;;;5046339;28;20033;-42
2022/04/05 08:40:07;;;;;;;7.03;5.88;;;11.00;99.90;;;;;;5046064;28;20453;-43
2022/04/05 08:42:35;;;;;;;10.38;6.40;;;11.00;99.90;;;;;;5046866;28;20065;-43
2022/04/05 08:45:08;;;;;;;7.10;5.82;;;11.00;99.90;;;;;;5046180;28;20169;-44
2022/04/05 08:47:34;;;;;;;6.05;5.45;;;11.10;99.90;;;;;;5045659;28;20025;-44
2022/04/05 08:50:02;;;;;;;6.47;5.60;;;11.10;99.90;;;;;;5046388;28;20829;-42
2022/04/05 08:52:28;;;;;;;5.85;5.35;;;11.20;99.90;;;;;;5046610;28;20503;-43
2022/04/05 08:54:54;;;;;;;7.13;5.30;;;11.20;99.90;;;;;;5045695;28;20017;-41
2022/04/05 08:57:20;;;;;;;8.48;5.55;;;11.30;99.90;;;;;;5045864;28;20044;-43
2022/04/05 08:59:45;;;;;;;8.10;5.53;;;11.30;99.90;;;;;;5045667;28;20071;-43
2022/04/05 09:02:11;;;;;;;8.90;5.68;;;11.30;99.90;;;;;;5045357;28;20469;-44
2022/04/05 09:04:37;;;;;;;8.68;6.30;;;11.50;99.90;;;;;;5046561;28;20122;-43
2022/04/05 09:07:23;;;;;;;5.95;5.45;;;11.50;99.90;;;;;;5045559;28;20021;-43
2022/04/05 09:10:09;;;;;;;8.43;6.55;;;11.50;99.90;;;;;;5036148;28;20146;-43
2022/04/05 09:12:41;;;;;;;8.27;5.65;;;11.60;99.90;;;;;;5046140;28;20372;-42
2022/04/05 09:15:17;;;;;;;10.70;6.35;;;11.70;99.90;;;;;;5046636;28;20126;-43
2022/04/05 09:17:48;;;;;;;8.88;5.68;;;11.70;99.90;;;;;;5045608;28;20361;-44
2022/04/05 09:20:16;;;;;;;7.30;6.00;;;11.80;99.90;;;;;;5045959;28;20060;-43
2022/04/05 09:22:42;;;;;;;7.32;5.60;;;11.80;99.90;;;;;;5044898;28;20170;-44
2022/04/05 09:25:10;;;;;;;7.97;6.05;;;11.80;99.90;;;;;;5045784;28;20587;-42
2022/04/05 09:28:08;;;;;;;7.32;5.50;;;11.90;99.90;;;;;;5045406;28;20045;-42
2022/04/05 09:30:34;;;;;;;7.65;5.55;;;12.00;99.90;;;;;;5036056;28;20033;-44
2022/04/05 09:33:02;;;;;;;7.15;5.45;;;12.00;99.90;;;;;;5045172;28;20098;-43
2022/04/05 09:35:30;;;;;;;9.70;6.07;;;12.10;99.90;;;;;;5045714;28;20572;-44
2022/04/05 09:38:26;;;;;;;6.45;5.05;;;12.20;99.90;;;;;;5043641;28;20090;-41
2022/04/05 09:40:52;;;;;;;7.28;5.10;;;12.30;99.90;;;;;;5035677;28;20131;-43
2022/04/05 09:43:18;;;;;;;8.05;6.18;;;12.30;99.90;;;;;;5045635;28;20029;-44
2022/04/05 09:45:53;;;;;;;7.63;5.00;;;12.30;99.90;;;;;;5044377;28;20512;-43
2022/04/05 09:48:24;;;;;;;8.25;5.07;;;12.20;99.90;;;;;;5045373;28;20035;-43
2022/04/05 09:51:11;;;;;;;6.47;4.95;;;12.10;99.90;;;;;;5043442;28;20036;-44
2022/04/05 09:53:39;;;;;;;5.63;4.68;;;12.00;99.90;;;;;;5044881;28;20024;-43
2022/04/05 09:56:32;;;;;;;5.90;4.60;;;12.00;99.90;;;;;;5044686;28;20043;-42
2022/04/05 09:59:18;;;;;;;5.05;4.55;;;12.10;99.90;;;;;;5044192;28;20028;-43
2022/04/05 10:01:45;;;;;;;7.10;4.60;;;12.20;99.90;;;;;;5043517;28;20052;-43
2022/04/05 10:04:14;;;;;;;4.60;4.20;;;12.40;99.90;;;;;;5045360;28;20027;-43
2022/04/05 10:06:44;;;;;;;5.30;4.47;;;12.40;99.90;;;;;;5045080;28;20025;-43
2022/04/05 10:09:10;;;;;;;6.32;4.75;;;12.40;99.90;;;;;;5045553;28;20383;-42
2022/04/05 10:11:38;;;;;;;5.47;3.85;;;12.30;99.90;;;;;;5047240;28;20493;-43
2022/04/05 10:14:04;;;;;;;4.65;3.40;;;12.20;99.90;;;;;;5047045;28;20033;-42
2022/04/05 10:16:31;;;;;;;3.47;3.17;;;12.10;99.90;;;;;;5047765;28;20044;-43
2022/04/05 10:19:04;;;;;;;4.03;3.70;;;12.00;99.90;;;;;;5047960;28;20079;-44
2022/04/05 10:21:31;;;;;;;3.58;3.20;;;11.90;99.90;;;;;;5051029;28;20361;-43
2022/04/05 10:23:57;;;;;;;4.32;3.92;;;11.80;99.90;;;;;;5049551;28;20120;-42
2022/04/05 10:26:35;;;;;;;4.55;4.10;;;11.90;99.90;;;;;;5038887;28;20065;-42
2022/04/05 10:29:08;;;;;;;5.10;4.60;;;11.80;99.90;;;;;;5048526;28;20416;-43
2022/04/05 10:31:50;;;;;;;7.05;4.95;;;11.80;99.90;;;;;;5048576;28;20049;-43
2022/04/05 10:34:30;;;;;;;7.30;5.10;;;11.80;99.90;;;;;;5048360;28;20053;-42
2022/04/05 10:37:17;;;;;;;8.32;6.40;;;11.70;99.90;;;;;;5047032;28;20036;-43
2022/04/05 10:40:03;;;;;;;7.22;5.25;;;11.70;99.90;;;;;;5046966;28;20884;-45
2022/04/05 10:42:40;;;;;;;9.43;5.90;;;11.60;99.90;;;;;;5047334;28;20037;-43
2022/04/05 10:45:13;;;;;;;8.05;5.95;;;11.70;99.90;;;;;;5048852;28;20057;-41
2022/04/05 10:48:00;;;;;;;6.75;5.43;;;11.80;99.90;;;;;;5048022;28;20055;-42
2022/04/05 10:50:26;;;;;;;8.13;5.32;;;11.80;99.90;;;;;;5049927;28;20037;-42
2022/04/05 10:53:21;;;;;;;7.18;6.00;;;11.90;99.90;;;;;;5048576;28;20029;-43
2022/04/05 10:56:07;;;;;;;7.47;6.68;;;11.90;99.90;;;;;;5047004;28;20017;-42
2022/04/05 10:58:47;;;;;;;7.60;6.20;;;11.90;99.90;;;;;;5048710;28;20044;-43
2022/04/05 11:01:20;;;;;;;8.10;6.53;;;12.00;99.90;;;;;;5047756;28;20071;-42
2022/04/05 11:04:14;;;;;;;8.40;6.80;;;11.90;99.90;;;;;;5047974;28;20068;-43
2022/04/05 11:06:58;;;;;;;7.13;6.10;;;11.80;99.90;;;;;;5048353;28;20029;-44
2022/04/05 11:09:39;;;;;;;8.73;6.30;;;11.80;99.90;;;;;;5047439;28;20389;-41
2022/04/05 11:12:10;;;;;;;9.13;5.90;;;11.80;99.90;;;;;;5047993;28;20037;-42
2022/04/05 11:14:41;;;;;;;8.75;6.55;;;11.80;99.90;;;;;;5048459;28;20159;-43
2022/04/05 11:17:13;;;;;;;7.78;6.25;;;11.80;99.90;;;;;;5047461;28;20024;-42
2022/04/05 11:19:41;;;;;;;11.07;6.63;;;11.80;99.90;;;;;;5048196;28;20036;-43
2022/04/05 11:22:30;;;;;;;8.07;6.38;;;11.80;99.90;;;;;;5046818;28;20017;-43
2022/04/05 11:25:28;;;;;;;7.82;6.38;;;11.90;99.90;;;;;;5047569;28;20380;-43
2022/04/05 11:27:55;;;;;;;9.43;7.25;;;12.00;99.90;;;;;;5046847;28;20021;-42
2022/04/05 11:30:27;;;;;;;6.85;5.97;;;12.00;99.90;;;;;;5046291;28;20576;-42
2022/04/05 11:33:33;;;;;;;7.75;6.57;;;12.00;99.90;;;;;;5047388;28;20067;-42
2022/04/05 11:36:08;;;;;;;10.40;6.32;;;12.00;99.90;;;;;;5026877;28;20034;-43
2022/04/05 11:38:35;;;;;;;8.55;6.13;;;12.00;99.90;;;;;;5045041;28;20400;-43
2022/04/05 11:41:17;;;;;;;9.18;5.90;;;12.00;99.90;;;;;;5046626;28;20587;-43
2022/04/05 11:43:45;;;;;;;9.37;5.77;;;12.10;99.90;;;;;;5046050;28;20025;-43
2022/04/05 11:46:29;;;;;;;8.25;5.95;;;12.20;99.90;;;;;;5050482;28;20025;-43
2022/04/05 11:49:00;;;;;;;6.80;5.32;;;12.20;99.90;;;;;;5047238;28;20754;-43
2022/04/05 11:51:37;;;;;;;7.43;5.75;;;12.30;99.90;;;;;;5026833;28;20037;-43
2022/04/05 11:54:08;;;;;;;6.75;5.45;;;12.40;99.90;;;;;;5044349;28;20082;-42
2022/04/05 11:56:35;;;;;;;8.88;5.55;;;12.50;99.90;;;;;;5047564;28;20160;-42
2022/04/05 11:59:03;;;;;;;11.75;6.43;;;12.60;99.90;;;;;;5046469;28;20170;-43
2022/04/05 12:01:32;;;;;;;7.07;4.95;;;12.70;99.90;;;;;;5047065;28;20473;-43
2022/04/05 12:04:00;;;;;;;7.85;5.70;;;12.80;99.90;;;;;;5046651;28;20033;-43
2022/04/05 12:06:29;;;;;;;7.45;5.50;;;12.80;99.90;;;;;;5047258;28;20068;-43
2022/04/05 12:08:57;;;;;;;7.55;6.43;;;12.90;99.90;;;;;;5046269;28;20029;-42
2022/04/05 12:11:27;;;;;;;8.23;5.93;;;12.90;99.90;;;;;;5045697;28;20799;-43
2022/04/05 12:13:58;;;;;;;6.10;5.50;;;12.90;99.90;;;;;;5046931;28;20045;-43
2022/04/05 12:16:26;;;;;;;7.40;5.22;;;12.90;99.90;;;;;;5047006;28;20041;-43
2022/04/05 12:18:52;;;;;;;8.43;5.15;;;13.00;99.90;;;;;;5046188;28;20107;-44
2022/04/05 12:21:21;;;;;;;7.78;5.85;;;13.10;99.90;;;;;;5046853;28;20027;-42
2022/04/05 12:23:48;;;;;;;9.20;5.65;;;13.20;99.90;;;;;;5046801;28;20021;-42
2022/04/05 12:26:19;;;;;;;8.60;5.20;;;13.20;99.90;;;;;;5046664;28;20428;-43
2022/04/05 12:28:48;;;;;;;6.35;5.22;;;13.30;99.90;;;;;;5045330;28;20032;-43
2022/04/05 12:31:22;;;;;;;7.72;5.47;;;13.40;99.90;;;;;;5046243;28;20460;-43
2022/04/05 12:34:08;;;;;;;7.32;4.90;;;13.50;99.90;;;;;;5044851;28;20468;-43
2022/04/05 12:36:36;;;;;;;6.47;5.47;;;13.50;99.90;;;;;;5047447;28;20060;-43
2022/04/05 12:39:04;;;;;;;10.13;5.35;;;13.40;99.90;;;;;;5046551;28;20029;-42
2022/04/05 12:41:37;;;;;;;6.63;5.07;;;13.40;99.90;;;;;;5046026;28;20761;-43
2022/04/05 12:44:05;;;;;;;7.20;5.03;;;13.30;99.90;;;;;;5046023;28;20052;-42
2022/04/05 12:47:04;;;;;;;6.43;4.82;;;13.10;99.90;;;;;;5048196;28;20051;-42
2022/04/05 12:49:38;;;;;;;5.43;4.57;;;12.90;99.90;;;;;;5045466;28;20556;-42
2022/04/05 12:52:24;;;;;;;8.95;4.55;;;12.80;99.90;;;;;;5036698;28;20111;-43
2022/04/05 12:54:50;;;;;;;6.03;4.93;;;12.70;99.90;;;;;;5045194;28;20560;-44
2022/04/05 12:57:21;;;;;;;7.15;5.40;;;12.70;99.90;;;;;;5045273;28;20048;-42